sensor_id;sensor_type;location;lat;lon;timestamp;temperature;humidity
19947;DHT22;10135;50.702;7.276;2023-07-13T05:00:33;21.60;46.00
19947;DHT22;10135;50.702;7.276;2023-07-13T05:02:34;21.60;46.10
19947;DHT22;10135;50.702;7.276;2023-07-13T05:04:35;21.60;46.00
19947;DHT22;10135;50.702;7.276;2023-07-13T05:06:36;21.60;46.00
19947;DHT22;10135;50.702;7.276;2023-07-13T05:08:37;21.60;46.10
19947;DHT22;10135;50.702;7.276;2023-07-13T05:10:37;21.60;46.10
19947;DHT22;10135;50.702;7.276;2023-07-13T05:12:38;21.60;46.20
19947;DHT22;10135;50.702;7.276;2023-07-13T05:14:39;21.50;46.20
19947;DHT22;10135;50.702;7.276;2023-07-13T05:16:39;21.60;46.40
19947;DHT22;10135;50.702;7.276;2023-07-13T05:18:40;21.60;46.40
19947;DHT22;10135;50.702;7.276;2023-07-13T05:20:40;21.60;46.40
19947;DHT22;10135;50.702;7.276;2023-07-13T05:22:42;21.60;46.40
19947;DHT22;10135;50.702;7.276;2023-07-13T05:24:43;21.60;46.50
19947;DHT22;10135;50.702;7.276;2023-07-13T05:26:44;21.60;46.50
19947;DHT22;10135;50.702;7.276;2023-07-13T05:28:45;21.60;46.50
19947;DHT22;10135;50.702;7.276;2023-07-13T05:30:47;21.60;46.50
19947;DHT22;10135;50.702;7.276;2023-07-13T05:32:48;21.70;46.60
19947;DHT22;10135;50.702;7.276;2023-07-13T05:34:49;21.60;46.50
19947;DHT22;10135;50.702;7.276;2023-07-13T05:36:50;21.60;46.60
19947;DHT22;10135;50.702;7.276;2023-07-13T05:38:50;21.60;46.60
19947;DHT22;10135;50.702;7.276;2023-07-13T05:40:53;21.60;46.60
19947;DHT22;10135;50.702;7.276;2023-07-13T05:42:54;21.60;46.70
19947;DHT22;10135;50.702;7.276;2023-07-13T05:44:55;21.60;46.70
19947;DHT22;10135;50.702;7.276;2023-07-13T05:46:56;21.50;46.70
19947;DHT22;10135;50.702;7.276;2023-07-13T05:48:56;21.50;46.70
19947;DHT22;10135;50.702;7.276;2023-07-13T05:50:57;21.50;46.90
19947;DHT22;10135;50.702;7.276;2023-07-13T05:52:58;21.50;46.90
19947;DHT22;10135;50.702;7.276;2023-07-13T05:54:58;21.50;46.90
19947;DHT22;10135;50.702;7.276;2023-07-13T05:56:59;21.50;46.90
19947;DHT22;10135;50.702;7.276;2023-07-13T05:59:00;21.50;46.90
19947;DHT22;10135;50.702;7.276;2023-07-13T06:01:10;21.50;47.00
19947;DHT22;10135;50.702;7.276;2023-07-13T06:03:12;21.50;47.20
19947;DHT22;10135;50.702;7.276;2023-07-13T06:05:12;21.50;47.00
19947;DHT22;10135;50.702;7.276;2023-07-13T06:07:14;21.50;47.10
19947;DHT22;10135;50.702;7.276;2023-07-13T06:09:15;21.50;47.20
19947;DHT22;10135;50.702;7.276;2023-07-13T06:11:18;21.60;47.30
19947;DHT22;10135;50.702;7.276;2023-07-13T06:13:21;21.60;47.80
19947;DHT22;10135;50.702;7.276;2023-07-13T06:15:22;21.60;47.40
19947;DHT22;10135;50.702;7.276;2023-07-13T06:17:22;21.70;47.50
19947;DHT22;10135;50.702;7.276;2023-07-13T06:19:23;21.70;47.50
19947;DHT22;10135;50.702;7.276;2023-07-13T06:21:24;21.80;47.50
19947;DHT22;10135;50.702;7.276;2023-07-13T06:23:25;21.80;47.50
19947;DHT22;10135;50.702;7.276;2023-07-13T06:25:26;21.90;47.60
19947;DHT22;10135;50.702;7.276;2023-07-13T06:27:27;21.90;47.60
19947;DHT22;10135;50.702;7.276;2023-07-13T06:29:28;22.00;47.70
19947;DHT22;10135;50.702;7.276;2023-07-13T06:31:28;22.10;47.70
19947;DHT22;10135;50.702;7.276;2023-07-13T06:33:29;22.10;47.70
19947;DHT22;10135;50.702;7.276;2023-07-13T06:35:29;22.20;47.60
19947;DHT22;10135;50.702;7.276;2023-07-13T06:37:30;22.20;47.60
19947;DHT22;10135;50.702;7.276;2023-07-13T06:39:31;22.30;47.60
19947;DHT22;10135;50.702;7.276;2023-07-13T06:41:32;22.30;47.50
19947;DHT22;10135;50.702;7.276;2023-07-13T06:43:34;22.30;47.60
19947;DHT22;10135;50.702;7.276;2023-07-13T06:45:47;22.30;47.60
19947;DHT22;10135;50.702;7.276;2023-07-13T06:47:50;22.40;47.90
19947;DHT22;10135;50.702;7.276;2023-07-13T06:49:50;22.40;47.60
19947;DHT22;10135;50.702;7.276;2023-07-13T06:51:51;22.50;47.60
19947;DHT22;10135;50.702;7.276;2023-07-13T06:53:52;22.50;47.50
19947;DHT22;10135;50.702;7.276;2023-07-13T06:55:52;22.50;47.60
19947;DHT22;10135;50.702;7.276;2023-07-13T06:57:53;22.50;47.60
19947;DHT22;10135;50.702;7.276;2023-07-13T06:59:54;22.50;47.70
19947;DHT22;10135;50.702;7.276;2023-07-13T07:01:54;22.50;47.60
19947;DHT22;10135;50.702;7.276;2023-07-13T07:03:55;22.50;47.60
19947;DHT22;10135;50.702;7.276;2023-07-13T07:06:18;22.60;47.70
19947;DHT22;10135;50.702;7.276;2023-07-13T07:08:20;22.60;47.90
19947;DHT22;10135;50.702;7.276;2023-07-13T07:10:21;22.60;47.70
19947;DHT22;10135;50.702;7.276;2023-07-13T07:12:22;22.60;47.70
19947;DHT22;10135;50.702;7.276;2023-07-13T07:14:23;22.60;47.60
19947;DHT22;10135;50.702;7.276;2023-07-13T07:16:24;22.60;47.60
19947;DHT22;10135;50.702;7.276;2023-07-13T07:18:25;22.70;47.80
19947;DHT22;10135;50.702;7.276;2023-07-13T07:20:26;22.70;47.70
19947;DHT22;10135;50.702;7.276;2023-07-13T07:22:27;22.70;47.80
19947;DHT22;10135;50.702;7.276;2023-07-13T07:24:28;22.70;47.80
19947;DHT22;10135;50.702;7.276;2023-07-13T07:26:28;22.70;47.80
19947;DHT22;10135;50.702;7.276;2023-07-13T07:28:29;22.70;47.80
19947;DHT22;10135;50.702;7.276;2023-07-13T07:30:30;22.70;47.80
19947;DHT22;10135;50.702;7.276;2023-07-13T07:32:30;22.70;47.80
19947;DHT22;10135;50.702;7.276;2023-07-13T07:34:31;22.80;47.90
19947;DHT22;10135;50.702;7.276;2023-07-13T07:36:32;22.80;47.90
19947;DHT22;10135;50.702;7.276;2023-07-13T07:38:33;22.90;47.90
19947;DHT22;10135;50.702;7.276;2023-07-13T07:40:40;22.90;47.90
19947;DHT22;10135;50.702;7.276;2023-07-13T07:42:41;22.90;47.90
19947;DHT22;10135;50.702;7.276;2023-07-13T07:44:42;23.00;47.90
19947;DHT22;10135;50.702;7.276;2023-07-13T07:46:43;23.00;47.90
19947;DHT22;10135;50.702;7.276;2023-07-13T07:48:43;23.00;47.90
19947;DHT22;10135;50.702;7.276;2023-07-13T07:50:44;23.10;48.00
19947;DHT22;10135;50.702;7.276;2023-07-13T07:52:45;23.10;48.00
19947;DHT22;10135;50.702;7.276;2023-07-13T07:54:45;23.20;47.90
19947;DHT22;10135;50.702;7.276;2023-07-13T07:56:46;23.20;47.90
19947;DHT22;10135;50.702;7.276;2023-07-13T07:58:46;23.20;47.90
19947;DHT22;10135;50.702;7.276;2023-07-13T08:00:47;23.30;48.00
19947;DHT22;10135;50.702;7.276;2023-07-13T08:02:48;23.30;47.90
19947;DHT22;10135;50.702;7.276;2023-07-13T08:04:48;23.40;48.00
19947;DHT22;10135;50.702;7.276;2023-07-13T08:06:49;23.50;48.00
19947;DHT22;10135;50.702;7.276;2023-07-13T08:08:50;23.50;47.90
19947;DHT22;10135;50.702;7.276;2023-07-13T08:10:52;23.50;47.90
19947;DHT22;10135;50.702;7.276;2023-07-13T08:12:53;23.50;47.90
19947;DHT22;10135;50.702;7.276;2023-07-13T08:14:53;23.60;47.90
19947;DHT22;10135;50.702;7.276;2023-07-13T08:16:57;23.60;47.80
19947;DHT22;10135;50.702;7.276;2023-07-13T08:18:58;23.60;47.80
19947;DHT22;10135;50.702;7.276;2023-07-13T08:21:06;23.70;47.80
19947;DHT22;10135;50.702;7.276;2023-07-13T08:23:09;23.70;47.80
19947;DHT22;10135;50.702;7.276;2023-07-13T08:25:10;23.70;47.70
19947;DHT22;10135;50.702;7.276;2023-07-13T08:27:11;23.70;47.70
19947;DHT22;10135;50.702;7.276;2023-07-13T08:29:12;23.70;47.60
19947;DHT22;10135;50.702;7.276;2023-07-13T08:31:12;23.70;47.60
19947;DHT22;10135;50.702;7.276;2023-07-13T08:33:15;23.70;47.70
19947;DHT22;10135;50.702;7.276;2023-07-13T08:35:19;23.70;47.70
19947;DHT22;10135;50.702;7.276;2023-07-13T08:37:19;23.80;47.80
19947;DHT22;10135;50.702;7.276;2023-07-13T08:39:20;23.80;47.80
19947;DHT22;10135;50.702;7.276;2023-07-13T08:41:21;23.80;47.80
19947;DHT22;10135;50.702;7.276;2023-07-13T08:43:28;23.80;47.70
19947;DHT22;10135;50.702;7.276;2023-07-13T08:45:51;23.90;47.70
19947;DHT22;10135;50.702;7.276;2023-07-13T08:48:03;23.90;47.80
19947;DHT22;10135;50.702;7.276;2023-07-13T08:50:14;23.90;47.70
19947;DHT22;10135;50.702;7.276;2023-07-13T08:52:37;23.90;47.70
19947;DHT22;10135;50.702;7.276;2023-07-13T08:54:50;23.90;47.60
19947;DHT22;10135;50.702;7.276;2023-07-13T08:56:55;24.00;47.70
19947;DHT22;10135;50.702;7.276;2023-07-13T08:59:05;24.00;47.60
19947;DHT22;10135;50.702;7.276;2023-07-13T09:01:34;24.00;47.50
19947;DHT22;10135;50.702;7.276;2023-07-13T09:04:08;24.00;47.40
19947;DHT22;10135;50.702;7.276;2023-07-13T09:06:15;24.00;47.40
19947;DHT22;10135;50.702;7.276;2023-07-13T09:08:44;24.10;47.50
19947;DHT22;10135;50.702;7.276;2023-07-13T09:11:00;24.10;47.40
19947;DHT22;10135;50.702;7.276;2023-07-13T09:16:07;24.10;47.40
19947;DHT22;10135;50.702;7.276;2023-07-13T09:18:16;24.20;47.40
19947;DHT22;10135;50.702;7.276;2023-07-13T09:20:30;24.20;47.40
19947;DHT22;10135;50.702;7.276;2023-07-13T09:22:37;24.30;47.50
19947;DHT22;10135;50.702;7.276;2023-07-13T09:27:21;24.40;47.20
19947;DHT22;10135;50.702;7.276;2023-07-13T09:29:30;24.40;47.00
19947;DHT22;10135;50.702;7.276;2023-07-13T09:31:39;24.40;47.00
19947;DHT22;10135;50.702;7.276;2023-07-13T09:33:44;24.40;46.90
19947;DHT22;10135;50.702;7.276;2023-07-13T09:35:45;24.50;47.00
19947;DHT22;10135;50.702;7.276;2023-07-13T09:37:46;24.50;46.90
19947;DHT22;10135;50.702;7.276;2023-07-13T09:39:49;24.50;46.80
19947;DHT22;10135;50.702;7.276;2023-07-13T09:42:11;24.60;46.70
19947;DHT22;10135;50.702;7.276;2023-07-13T09:44:28;24.60;46.60
19947;DHT22;10135;50.702;7.276;2023-07-13T09:46:33;24.60;46.40
19947;DHT22;10135;50.702;7.276;2023-07-13T09:48:35;24.70;46.70
19947;DHT22;10135;50.702;7.276;2023-07-13T09:50:37;24.70;46.60
19947;DHT22;10135;50.702;7.276;2023-07-13T09:52:47;24.80;46.60
19947;DHT22;10135;50.702;7.276;2023-07-13T09:54:50;24.90;46.40
19947;DHT22;10135;50.702;7.276;2023-07-13T09:57:00;24.90;46.60
19947;DHT22;10135;50.702;7.276;2023-07-13T09:59:01;24.90;46.40
19947;DHT22;10135;50.702;7.276;2023-07-13T10:01:03;25.00;46.40
19947;DHT22;10135;50.702;7.276;2023-07-13T10:03:18;25.00;46.40
19947;DHT22;10135;50.702;7.276;2023-07-13T10:05:22;25.00;46.10
19947;DHT22;10135;50.702;7.276;2023-07-13T10:07:25;25.00;46.20
19947;DHT22;10135;50.702;7.276;2023-07-13T10:09:26;25.00;46.20
19947;DHT22;10135;50.702;7.276;2023-07-13T10:11:29;25.00;46.20
19947;DHT22;10135;50.702;7.276;2023-07-13T10:13:36;25.00;46.10
19947;DHT22;10135;50.702;7.276;2023-07-13T10:15:40;25.00;46.10
19947;DHT22;10135;50.702;7.276;2023-07-13T10:17:41;25.00;46.10
19947;DHT22;10135;50.702;7.276;2023-07-13T10:19:45;25.00;46.10
19947;DHT22;10135;50.702;7.276;2023-07-13T10:21:57;25.00;46.10
19947;DHT22;10135;50.702;7.276;2023-07-13T10:24:19;25.00;46.10
19947;DHT22;10135;50.702;7.276;2023-07-13T10:26:26;25.00;46.00
19947;DHT22;10135;50.702;7.276;2023-07-13T10:28:38;25.10;46.10
19947;DHT22;10135;50.702;7.276;2023-07-13T10:30:44;25.10;45.90
19947;DHT22;10135;50.702;7.276;2023-07-13T10:32:47;25.10;46.00
19947;DHT22;10135;50.702;7.276;2023-07-13T10:34:49;25.20;46.00
19947;DHT22;10135;50.702;7.276;2023-07-13T10:36:53;25.20;45.90
19947;DHT22;10135;50.702;7.276;2023-07-13T10:38:55;25.20;45.90
19947;DHT22;10135;50.702;7.276;2023-07-13T10:41:15;25.30;45.90
19947;DHT22;10135;50.702;7.276;2023-07-13T10:43:23;25.30;45.80
19947;DHT22;10135;50.702;7.276;2023-07-13T10:45:34;25.30;45.60
19947;DHT22;10135;50.702;7.276;2023-07-13T10:47:37;25.20;45.30
19947;DHT22;10135;50.702;7.276;2023-07-13T10:49:41;25.20;45.40
19947;DHT22;10135;50.702;7.276;2023-07-13T10:51:43;25.20;45.40
19947;DHT22;10135;50.702;7.276;2023-07-13T10:53:43;25.30;45.50
19947;DHT22;10135;50.702;7.276;2023-07-13T10:57:51;25.30;45.50
19947;DHT22;10135;50.702;7.276;2023-07-13T11:00:15;25.40;45.70
19947;DHT22;10135;50.702;7.276;2023-07-13T11:02:25;25.40;45.50
19947;DHT22;10135;50.702;7.276;2023-07-13T11:04:39;25.50;45.70
19947;DHT22;10135;50.702;7.276;2023-07-13T11:06:43;25.50;45.70
19947;DHT22;10135;50.702;7.276;2023-07-13T11:08:55;25.50;45.80
19947;DHT22;10135;50.702;7.276;2023-07-13T11:10:58;25.60;45.70
19947;DHT22;10135;50.702;7.276;2023-07-13T11:12:59;25.60;45.70
19947;DHT22;10135;50.702;7.276;2023-07-13T11:15:03;25.60;45.70
19947;DHT22;10135;50.702;7.276;2023-07-13T11:19:40;25.70;45.50
19947;DHT22;10135;50.702;7.276;2023-07-13T11:28:42;25.60;45.30
19947;DHT22;10135;50.702;7.276;2023-07-13T11:30:50;25.60;45.40
19947;DHT22;10135;50.702;7.276;2023-07-13T11:33:17;25.60;45.40
19947;DHT22;10135;50.702;7.276;2023-07-13T11:35:26;25.50;44.80
19947;DHT22;10135;50.702;7.276;2023-07-13T11:37:28;25.50;44.60
19947;DHT22;10135;50.702;7.276;2023-07-13T11:39:35;25.50;44.70
19947;DHT22;10135;50.702;7.276;2023-07-13T11:41:45;25.40;44.30
19947;DHT22;10135;50.702;7.276;2023-07-13T11:44:12;25.40;44.20
19947;DHT22;10135;50.702;7.276;2023-07-13T11:46:26;25.40;44.40
19947;DHT22;10135;50.702;7.276;2023-07-13T11:48:29;25.40;44.10
19947;DHT22;10135;50.702;7.276;2023-07-13T11:50:31;25.40;44.40
19947;DHT22;10135;50.702;7.276;2023-07-13T11:52:35;25.40;44.40
19947;DHT22;10135;50.702;7.276;2023-07-13T11:54:47;25.40;44.30
19947;DHT22;10135;50.702;7.276;2023-07-13T11:56:51;25.30;43.90
19947;DHT22;10135;50.702;7.276;2023-07-13T11:58:56;25.40;44.30
19947;DHT22;10135;50.702;7.276;2023-07-13T12:01:00;25.30;44.20
19947;DHT22;10135;50.702;7.276;2023-07-13T12:03:05;25.40;44.20
19947;DHT22;10135;50.702;7.276;2023-07-13T12:05:11;25.40;44.10
19947;DHT22;10135;50.702;7.276;2023-07-13T12:07:16;25.40;43.90
19947;DHT22;10135;50.702;7.276;2023-07-13T12:09:18;25.40;44.00
19947;DHT22;10135;50.702;7.276;2023-07-13T12:11:20;25.40;44.00
19947;DHT22;10135;50.702;7.276;2023-07-13T12:13:22;25.40;44.00
19947;DHT22;10135;50.702;7.276;2023-07-13T12:15:27;25.40;44.00
19947;DHT22;10135;50.702;7.276;2023-07-13T12:17:43;25.40;43.80
19947;DHT22;10135;50.702;7.276;2023-07-13T12:19:44;25.40;44.00
19947;DHT22;10135;50.702;7.276;2023-07-13T12:21:47;25.40;43.90
19947;DHT22;10135;50.702;7.276;2023-07-13T12:23:50;25.40;43.80
19947;DHT22;10135;50.702;7.276;2023-07-13T12:25:51;25.50;44.00
19947;DHT22;10135;50.702;7.276;2023-07-13T12:27:53;25.50;43.90
19947;DHT22;10135;50.702;7.276;2023-07-13T12:30:06;25.50;43.90
19947;DHT22;10135;50.702;7.276;2023-07-13T12:32:25;25.50;44.30
19947;DHT22;10135;50.702;7.276;2023-07-13T12:34:27;25.50;43.80
19947;DHT22;10135;50.702;7.276;2023-07-13T12:36:31;25.50;43.80
19947;DHT22;10135;50.702;7.276;2023-07-13T12:38:33;25.50;43.70
19947;DHT22;10135;50.702;7.276;2023-07-13T12:40:35;25.60;43.80
19947;DHT22;10135;50.702;7.276;2023-07-13T12:42:39;25.60;43.70
19947;DHT22;10135;50.702;7.276;2023-07-13T12:44:42;25.50;43.70
19947;DHT22;10135;50.702;7.276;2023-07-13T12:46:57;25.60;43.60
19947;DHT22;10135;50.702;7.276;2023-07-13T12:49:06;25.60;43.30
19947;DHT22;10135;50.702;7.276;2023-07-13T12:51:12;25.60;43.50
19947;DHT22;10135;50.702;7.276;2023-07-13T12:53:21;25.60;43.40
19947;DHT22;10135;50.702;7.276;2023-07-13T12:55:24;25.60;43.40
19947;DHT22;10135;50.702;7.276;2023-07-13T12:57:25;25.60;43.50
19947;DHT22;10135;50.702;7.276;2023-07-13T12:59:30;25.60;43.50
19947;DHT22;10135;50.702;7.276;2023-07-13T13:01:35;25.60;43.40
19947;DHT22;10135;50.702;7.276;2023-07-13T13:03:39;25.60;43.50
19947;DHT22;10135;50.702;7.276;2023-07-13T13:05:41;25.50;43.50
19947;DHT22;10135;50.702;7.276;2023-07-13T13:07:43;25.60;43.60
19947;DHT22;10135;50.702;7.276;2023-07-13T13:09:46;25.50;43.60
19947;DHT22;10135;50.702;7.276;2023-07-13T13:11:47;25.50;43.60
19947;DHT22;10135;50.702;7.276;2023-07-13T13:13:48;25.50;43.70
19947;DHT22;10135;50.702;7.276;2023-07-13T13:15:49;25.50;43.80
19947;DHT22;10135;50.702;7.276;2023-07-13T13:17:49;25.50;43.70
19947;DHT22;10135;50.702;7.276;2023-07-13T13:19:51;25.60;43.80
19947;DHT22;10135;50.702;7.276;2023-07-13T13:21:55;25.60;43.80
19947;DHT22;10135;50.702;7.276;2023-07-13T13:23:57;25.60;43.70
19947;DHT22;10135;50.702;7.276;2023-07-13T13:25:58;25.60;43.70
19947;DHT22;10135;50.702;7.276;2023-07-13T13:27:59;25.60;43.70
19947;DHT22;10135;50.702;7.276;2023-07-13T13:30:00;25.60;43.60
19947;DHT22;10135;50.702;7.276;2023-07-13T13:32:00;25.60;43.70
19947;DHT22;10135;50.702;7.276;2023-07-13T13:34:01;25.70;43.80
19947;DHT22;10135;50.702;7.276;2023-07-13T13:36:02;25.70;43.80
19947;DHT22;10135;50.702;7.276;2023-07-13T13:38:16;25.60;43.60
19947;DHT22;10135;50.702;7.276;2023-07-13T13:40:22;25.70;43.60
19947;DHT22;10135;50.702;7.276;2023-07-13T13:42:27;25.70;43.70
19947;DHT22;10135;50.702;7.276;2023-07-13T13:44:29;25.70;43.60
19947;DHT22;10135;50.702;7.276;2023-07-13T13:46:29;25.70;43.60
19947;DHT22;10135;50.702;7.276;2023-07-13T13:48:33;25.70;43.50
19947;DHT22;10135;50.702;7.276;2023-07-13T13:50:36;25.70;43.50
19947;DHT22;10135;50.702;7.276;2023-07-13T13:52:36;25.80;43.50
19947;DHT22;10135;50.702;7.276;2023-07-13T13:54:37;25.80;43.50
19947;DHT22;10135;50.702;7.276;2023-07-13T13:56:37;25.80;43.40
19947;DHT22;10135;50.702;7.276;2023-07-13T13:58:39;25.90;43.30
19947;DHT22;10135;50.702;7.276;2023-07-13T14:00:40;25.80;43.30
19947;DHT22;10135;50.702;7.276;2023-07-13T14:02:44;25.90;43.30
19947;DHT22;10135;50.702;7.276;2023-07-13T14:04:58;25.90;43.10
19947;DHT22;10135;50.702;7.276;2023-07-13T14:07:01;25.90;42.90
19947;DHT22;10135;50.702;7.276;2023-07-13T14:09:04;26.00;43.10
19947;DHT22;10135;50.702;7.276;2023-07-13T14:11:07;26.00;43.10
19947;DHT22;10135;50.702;7.276;2023-07-13T14:13:54;26.00;43.10
19947;DHT22;10135;50.702;7.276;2023-07-13T14:15:58;26.00;42.90
19947;DHT22;10135;50.702;7.276;2023-07-13T14:17:59;26.10;43.10
19947;DHT22;10135;50.702;7.276;2023-07-13T14:20:00;26.10;43.00
19947;DHT22;10135;50.702;7.276;2023-07-13T14:22:01;26.10;43.00
19947;DHT22;10135;50.702;7.276;2023-07-13T14:24:01;26.20;43.20
19947;DHT22;10135;50.702;7.276;2023-07-13T14:26:08;26.20;43.10
19947;DHT22;10135;50.702;7.276;2023-07-13T14:28:21;26.30;43.00
19947;DHT22;10135;50.702;7.276;2023-07-13T14:30:25;26.40;43.00
19947;DHT22;10135;50.702;7.276;2023-07-13T14:32:25;26.50;43.00
19947;DHT22;10135;50.702;7.276;2023-07-13T14:34:27;26.50;42.90
19947;DHT22;10135;50.702;7.276;2023-07-13T14:36:36;26.60;42.90
19947;DHT22;10135;50.702;7.276;2023-07-13T14:38:41;26.70;42.90
19947;DHT22;10135;50.702;7.276;2023-07-13T14:40:42;26.70;42.70
19947;DHT22;10135;50.702;7.276;2023-07-13T14:42:43;26.70;42.60
19947;DHT22;10135;50.702;7.276;2023-07-13T14:44:43;26.80;42.50
19947;DHT22;10135;50.702;7.276;2023-07-13T14:46:45;26.80;42.50
19947;DHT22;10135;50.702;7.276;2023-07-13T14:48:46;26.90;42.30
19947;DHT22;10135;50.702;7.276;2023-07-13T14:50:54;26.90;42.20
19947;DHT22;10135;50.702;7.276;2023-07-13T14:52:56;26.90;42.10
19947;DHT22;10135;50.702;7.276;2023-07-13T14:54:57;26.90;42.20
19947;DHT22;10135;50.702;7.276;2023-07-13T14:56:57;26.90;42.20
19947;DHT22;10135;50.702;7.276;2023-07-13T14:58:58;26.90;42.20
19947;DHT22;10135;50.702;7.276;2023-07-13T15:00:59;26.90;42.10
19947;DHT22;10135;50.702;7.276;2023-07-13T15:03:00;26.90;42.00
19947;DHT22;10135;50.702;7.276;2023-07-13T15:05:01;26.90;42.00
19947;DHT22;10135;50.702;7.276;2023-07-13T15:07:04;26.90;42.00
19947;DHT22;10135;50.702;7.276;2023-07-13T15:09:05;27.00;42.00
19947;DHT22;10135;50.702;7.276;2023-07-13T15:11:09;26.90;41.90
19947;DHT22;10135;50.702;7.276;2023-07-13T15:13:21;27.00;41.90
19947;DHT22;10135;50.702;7.276;2023-07-13T15:15:23;26.90;41.50
19947;DHT22;10135;50.702;7.276;2023-07-13T15:17:33;27.00;41.90
19947;DHT22;10135;50.702;7.276;2023-07-13T15:19:37;27.00;41.60
19947;DHT22;10135;50.702;7.276;2023-07-13T15:21:37;27.00;41.80
19947;DHT22;10135;50.702;7.276;2023-07-13T15:23:38;27.00;41.80
19947;DHT22;10135;50.702;7.276;2023-07-13T15:25:41;27.00;41.80
19947;DHT22;10135;50.702;7.276;2023-07-13T15:27:44;27.00;41.70
19947;DHT22;10135;50.702;7.276;2023-07-13T15:29:45;27.00;41.70
19947;DHT22;10135;50.702;7.276;2023-07-13T15:31:46;27.00;41.70
19947;DHT22;10135;50.702;7.276;2023-07-13T15:33:48;27.00;41.60
19947;DHT22;10135;50.702;7.276;2023-07-13T15:35:51;27.00;41.60
19947;DHT22;10135;50.702;7.276;2023-07-13T15:37:54;27.00;41.60
19947;DHT22;10135;50.702;7.276;2023-07-13T15:39:55;27.00;41.60
19947;DHT22;10135;50.702;7.276;2023-07-13T15:41:55;26.90;41.50
19947;DHT22;10135;50.702;7.276;2023-07-13T15:43:57;26.90;41.50
19947;DHT22;10135;50.702;7.276;2023-07-13T15:45:59;27.00;41.60
19947;DHT22;10135;50.702;7.276;2023-07-13T15:47:59;27.00;41.60
19947;DHT22;10135;50.702;7.276;2023-07-13T15:50:00;27.00;41.40
19947;DHT22;10135;50.702;7.276;2023-07-13T15:52:01;27.10;41.30
19947;DHT22;10135;50.702;7.276;2023-07-13T15:54:03;27.00;41.20
19947;DHT22;10135;50.702;7.276;2023-07-13T15:56:25;27.00;41.00
19947;DHT22;10135;50.702;7.276;2023-07-13T15:58:27;27.00;40.70
19947;DHT22;10135;50.702;7.276;2023-07-13T16:00:28;27.00;40.90
19947;DHT22;10135;50.702;7.276;2023-07-13T16:02:29;27.00;40.90
19947;DHT22;10135;50.702;7.276;2023-07-13T16:04:30;26.90;40.90
19947;DHT22;10135;50.702;7.276;2023-07-13T16:06:34;26.90;40.90
19947;DHT22;10135;50.702;7.276;2023-07-13T16:08:36;26.80;40.70
19947;DHT22;10135;50.702;7.276;2023-07-13T16:10:40;26.80;40.80
19947;DHT22;10135;50.702;7.276;2023-07-13T16:12:41;26.80;40.90
19947;DHT22;10135;50.702;7.276;2023-07-13T16:14:43;26.70;40.80
19947;DHT22;10135;50.702;7.276;2023-07-13T16:16:43;26.70;40.80
19947;DHT22;10135;50.702;7.276;2023-07-13T16:18:45;26.70;40.80
19947;DHT22;10135;50.702;7.276;2023-07-13T16:20:47;26.70;40.80
19947;DHT22;10135;50.702;7.276;2023-07-13T16:22:51;26.70;40.80
19947;DHT22;10135;50.702;7.276;2023-07-13T16:24:54;26.60;41.40
19947;DHT22;10135;50.702;7.276;2023-07-13T16:26:56;26.60;40.80
19947;DHT22;10135;50.702;7.276;2023-07-13T16:28:57;26.60;40.80
19947;DHT22;10135;50.702;7.276;2023-07-13T16:31:00;26.60;40.80
19947;DHT22;10135;50.702;7.276;2023-07-13T16:33:03;26.60;40.80
19947;DHT22;10135;50.702;7.276;2023-07-13T16:35:07;26.50;40.80
19947;DHT22;10135;50.702;7.276;2023-07-13T16:37:21;26.50;40.80
19947;DHT22;10135;50.702;7.276;2023-07-13T16:39:27;26.50;40.70
19947;DHT22;10135;50.702;7.276;2023-07-13T16:41:27;26.40;40.70
19947;DHT22;10135;50.702;7.276;2023-07-13T16:43:28;26.40;40.80
19947;DHT22;10135;50.702;7.276;2023-07-13T16:45:30;26.40;40.80
19947;DHT22;10135;50.702;7.276;2023-07-13T16:47:35;26.40;40.80
19947;DHT22;10135;50.702;7.276;2023-07-13T16:49:38;26.40;40.90
19947;DHT22;10135;50.702;7.276;2023-07-13T16:51:38;26.30;40.80
19947;DHT22;10135;50.702;7.276;2023-07-13T16:53:39;26.30;40.80
19947;DHT22;10135;50.702;7.276;2023-07-13T16:55:44;26.30;40.90
19947;DHT22;10135;50.702;7.276;2023-07-13T16:57:46;26.30;40.90
19947;DHT22;10135;50.702;7.276;2023-07-13T16:59:48;26.20;40.90
19947;DHT22;10135;50.702;7.276;2023-07-13T17:01:49;26.20;40.90
19947;DHT22;10135;50.702;7.276;2023-07-13T17:03:49;26.20;41.00
19947;DHT22;10135;50.702;7.276;2023-07-13T17:05:57;26.20;40.90
19947;DHT22;10135;50.702;7.276;2023-07-13T17:08:00;26.10;41.00
19947;DHT22;10135;50.702;7.276;2023-07-13T17:10:01;26.10;41.00
19947;DHT22;10135;50.702;7.276;2023-07-13T17:12:02;26.10;41.10
19947;DHT22;10135;50.702;7.276;2023-07-13T17:14:15;26.00;41.10
19947;DHT22;10135;50.702;7.276;2023-07-13T17:16:19;26.00;41.30
19947;DHT22;10135;50.702;7.276;2023-07-13T17:18:26;25.90;41.20
19947;DHT22;10135;50.702;7.276;2023-07-13T17:20:31;25.90;41.30
19947;DHT22;10135;50.702;7.276;2023-07-13T17:22:43;25.80;41.40
19947;DHT22;10135;50.702;7.276;2023-07-13T17:24:47;25.80;41.40
19947;DHT22;10135;50.702;7.276;2023-07-13T17:26:49;25.70;41.50
19947;DHT22;10135;50.702;7.276;2023-07-13T17:28:51;25.70;41.60
19947;DHT22;10135;50.702;7.276;2023-07-13T17:30:54;25.60;41.60
19947;DHT22;10135;50.702;7.276;2023-07-13T17:32:57;25.60;41.70
19947;DHT22;10135;50.702;7.276;2023-07-13T17:34:58;25.60;41.90
19947;DHT22;10135;50.702;7.276;2023-07-13T17:37:00;25.50;41.90
19947;DHT22;10135;50.702;7.276;2023-07-13T17:39:01;25.50;42.00
19947;DHT22;10135;50.702;7.276;2023-07-13T17:41:04;25.40;42.00
19947;DHT22;10135;50.702;7.276;2023-07-13T17:43:05;25.40;42.10
19947;DHT22;10135;50.702;7.276;2023-07-13T17:45:06;25.40;42.10
19947;DHT22;10135;50.702;7.276;2023-07-13T17:47:23;25.30;42.20
19947;DHT22;10135;50.702;7.276;2023-07-13T17:49:25;25.30;42.40
19947;DHT22;10135;50.702;7.276;2023-07-13T17:51:35;25.30;42.30
19947;DHT22;10135;50.702;7.276;2023-07-13T17:53:37;25.30;42.40
19947;DHT22;10135;50.702;7.276;2023-07-13T17:55:42;25.30;42.40
19947;DHT22;10135;50.702;7.276;2023-07-13T17:57:44;25.20;42.40
19947;DHT22;10135;50.702;7.276;2023-07-13T17:59:48;25.20;42.50
19947;DHT22;10135;50.702;7.276;2023-07-13T18:01:49;25.20;42.50
19947;DHT22;10135;50.702;7.276;2023-07-13T18:03:52;25.20;42.60
19947;DHT22;10135;50.702;7.276;2023-07-13T18:06:00;25.20;42.70
19947;DHT22;10135;50.702;7.276;2023-07-13T18:08:02;25.10;42.60
19947;DHT22;10135;50.702;7.276;2023-07-13T18:10:12;25.10;42.70
19947;DHT22;10135;50.702;7.276;2023-07-13T18:12:14;25.10;42.90
19947;DHT22;10135;50.702;7.276;2023-07-13T18:14:15;25.10;42.80
19947;DHT22;10135;50.702;7.276;2023-07-13T18:16:27;25.10;42.90
19947;DHT22;10135;50.702;7.276;2023-07-13T18:18:32;25.10;43.80
19947;DHT22;10135;50.702;7.276;2023-07-13T18:20:34;25.10;43.10